Time;durP1;ratioP1;P1;durP2;ratioP2;P2;SDS_P1;SDS_P2;PMS_P1;PMS_P2;Temp;Humidity;BMP_temperature;BMP_pressure;BME280_temperature;BME280_humidity;BME280_pressure;Samples;Min_cycle;Max_cycle;Signal;HPM_P1;HPM_P2
2024/04/22 00:00:45;;;;;;;14.00;3.25;;;;;;;;;;4979975;28;20044;-73
2024/04/22 00:03:15;;;;;;;7.28;2.92;;;;;;;;;;4979283;28;21234;-72
2024/04/22 00:05:55;;;;;;;5.57;2.47;;;;;;;;;;4979558;28;20033;-72
2024/04/22 00:08:27;;;;;;;8.00;3.33;;;;;;;;;;4980154;28;20470;-73
2024/04/22 00:11:02;;;;;;;6.13;2.65;;;;;;;;;;4978052;28;20486;-73
2024/04/22 00:13:35;;;;;;;21.42;8.43;;;;;;;;;;4978700;28;20032;-76
2024/04/22 00:16:05;;;;;;;8.57;4.32;;;;;;;;;;4978420;28;20019;-73
2024/04/22 00:18:36;;;;;;;9.90;5.22;;;;;;;;;;4977974;28;20009;-73
2024/04/22 00:21:07;;;;;;;14.05;4.47;;;;;;;;;;4979426;28;20055;-73
2024/04/22 00:23:37;;;;;;;11.93;3.50;;;;;;;;;;4971278;28;20041;-74
2024/04/22 00:26:07;;;;;;;9.07;3.38;;;;;;;;;;4977915;28;20040;-73
2024/04/22 00:28:38;;;;;;;6.18;3.10;;;;;;;;;;4977637;28;20041;-72
2024/04/22 00:31:09;;;;;;;15.45;3.33;;;;;;;;;;4976441;28;20036;-73
2024/04/22 00:33:40;;;;;;;10.15;3.75;;;;;;;;;;4973715;28;20523;-73
2024/04/22 00:36:10;;;;;;;5.00;2.92;;;;;;;;;;4976601;28;20005;-73
2024/04/22 00:38:41;;;;;;;18.10;3.40;;;;;;;;;;4979263;28;20009;-73
2024/04/22 00:41:12;;;;;;;16.20;2.75;;;;;;;;;;4979273;28;20350;-73
2024/04/22 00:43:44;;;;;;;12.82;3.17;;;;;;;;;;4977636;28;20015;-72
2024/04/22 00:46:14;;;;;;;9.30;3.15;;;;;;;;;;4978842;28;20473;-73
2024/04/22 00:48:45;;;;;;;17.60;3.20;;;;;;;;;;4979523;28;20029;-72
2024/04/22 00:51:16;;;;;;;5.70;2.67;;;;;;;;;;4975850;28;20481;-73
2024/04/22 00:53:48;;;;;;;8.00;3.13;;;;;;;;;;4976337;28;20032;-73
2024/04/22 00:56:19;;;;;;;13.73;2.85;;;;;;;;;;4977993;28;20005;-73
2024/04/22 00:58:50;;;;;;;8.50;2.72;;;;;;;;;;4978058;28;20008;-73
2024/04/22 01:01:23;;;;;;;6.28;3.05;;;;;;;;;;4978315;28;20366;-73
2024/04/22 01:03:54;;;;;;;6.65;2.45;;;;;;;;;;4981671;28;20032;-73
2024/04/22 01:06:25;;;;;;;6.10;2.60;;;;;;;;;;4981281;28;20044;-74
2024/04/22 01:08:56;;;;;;;7.20;2.40;;;;;;;;;;4981491;28;20033;-74
2024/04/22 01:11:26;;;;;;;5.60;2.25;;;;;;;;;;4954411;28;20464;-72
2024/04/22 01:14:00;;;;;;;4.00;2.38;;;;;;;;;;4954942;28;20036;-73
2024/04/22 01:16:31;;;;;;;4.25;2.20;;;;;;;;;;4981442;28;20029;-73
2024/04/22 01:19:01;;;;;;;2.97;2.13;;;;;;;;;;4981702;28;20033;-73
2024/04/22 01:21:32;;;;;;;6.57;2.03;;;;;;;;;;4981713;28;20040;-73
2024/04/22 01:24:03;;;;;;;3.60;2.40;;;;;;;;;;4981629;28;20140;-73
2024/04/22 01:26:34;;;;;;;5.32;2.47;;;;;;;;;;4982401;28;20052;-73
2024/04/22 01:29:05;;;;;;;5.72;2.03;;;;;;;;;;4981647;28;20037;-72
2024/04/22 01:31:35;;;;;;;3.78;2.42;;;;;;;;;;4954579;28;20040;-72
2024/04/22 01:34:06;;;;;;;4.95;2.20;;;;;;;;;;4981732;28;20046;-72
2024/04/22 01:36:40;;;;;;;8.57;2.20;;;;;;;;;;4981454;28;20033;-73
2024/04/22 01:39:11;;;;;;;4.53;2.38;;;;;;;;;;4981565;28;20048;-73
2024/04/22 01:41:42;;;;;;;3.53;2.20;;;;;;;;;;4981443;28;20028;-73
2024/04/22 01:44:12;;;;;;;5.45;2.22;;;;;;;;;;4980626;28;20382;-72
2024/04/22 01:46:44;;;;;;;5.88;2.28;;;;;;;;;;4981358;28;20004;-74
2024/04/22 01:49:16;;;;;;;3.40;2.38;;;;;;;;;;4981547;28;20074;-73
2024/04/22 01:51:47;;;;;;;10.13;2.40;;;;;;;;;;4981269;28;20042;-73
2024/04/22 01:54:17;;;;;;;7.75;2.53;;;;;;;;;;4981048;28;20064;-73
2024/04/22 01:56:50;;;;;;;13.73;2.90;;;;;;;;;;4981233;28;20045;-72
2024/04/22 01:59:22;;;;;;;4.95;2.65;;;;;;;;;;4980691;28;20004;-73
2024/04/22 02:01:53;;;;;;;3.58;2.08;;;;;;;;;;4981171;28;20029;-73
2024/04/22 02:04:24;;;;;;;8.63;2.50;;;;;;;;;;4981519;28;20033;-73
2024/04/22 02:06:55;;;;;;;3.78;2.33;;;;;;;;;;4981827;28;20033;-72
2024/04/22 02:09:26;;;;;;;5.00;2.30;;;;;;;;;;4981727;28;20738;-72
2024/04/22 02:11:56;;;;;;;4.93;2.55;;;;;;;;;;4981673;28;21127;-73
2024/04/22 02:14:27;;;;;;;6.88;2.17;;;;;;;;;;4980560;28;20032;-72
2024/04/22 02:16:58;;;;;;;7.90;2.30;;;;;;;;;;4980654;28;20033;-72
2024/04/22 02:19:29;;;;;;;6.90;2.20;;;;;;;;;;4953694;28;20334;-72
2024/04/22 02:21:59;;;;;;;4.72;2.45;;;;;;;;;;4980862;28;20029;-73
2024/04/22 02:24:29;;;;;;;5.10;2.42;;;;;;;;;;4980979;28;20036;-73
2024/04/22 02:26:59;;;;;;;5.40;2.60;;;;;;;;;;4980997;28;20028;-73
2024/04/22 02:29:30;;;;;;;5.82;2.13;;;;;;;;;;4980079;28;20037;-73
2024/04/22 02:32:01;;;;;;;6.82;2.47;;;;;;;;;;4980370;28;20384;-73
2024/04/22 02:34:31;;;;;;;3.72;2.35;;;;;;;;;;4981053;28;20029;-73
2024/04/22 02:37:02;;;;;;;4.72;2.13;;;;;;;;;;4980572;28;20040;-73
2024/04/22 02:39:32;;;;;;;5.93;2.50;;;;;;;;;;4980721;28;20347;-72
2024/04/22 02:42:02;;;;;;;5.57;2.40;;;;;;;;;;4980138;28;20004;-75
2024/04/22 02:44:33;;;;;;;4.10;2.33;;;;;;;;;;4980830;28;20032;-74
2024/04/22 02:47:04;;;;;;;3.35;2.25;;;;;;;;;;4980050;28;20040;-73
2024/04/22 02:49:35;;;;;;;3.47;2.08;;;;;;;;;;4980859;28;20040;-73
2024/04/22 02:52:06;;;;;;;9.52;2.60;;;;;;;;;;4954752;28;20004;-73
2024/04/22 02:54:37;;;;;;;5.38;2.42;;;;;;;;;;4980692;28;20036;-73
2024/04/22 02:57:06;;;;;;;3.97;2.55;;;;;;;;;;4980544;28;20005;-72
2024/04/22 02:59:36;;;;;;;5.28;2.15;;;;;;;;;;4980777;28;20032;-72
2024/04/22 03:02:07;;;;;;;7.63;2.45;;;;;;;;;;4980813;28;20056;-73
2024/04/22 03:04:38;;;;;;;4.45;2.42;;;;;;;;;;4980731;28;20042;-72
2024/04/22 03:07:10;;;;;;;8.07;2.33;;;;;;;;;;4980459;28;20829;-73
2024/04/22 03:09:42;;;;;;;4.65;2.70;;;;;;;;;;4979746;28;20412;-73
2024/04/22 03:12:13;;;;;;;4.90;2.35;;;;;;;;;;4980132;28;20349;-72
2024/04/22 03:14:44;;;;;;;6.10;2.40;;;;;;;;;;4980184;28;20040;-72
2024/04/22 03:17:14;;;;;;;7.03;2.60;;;;;;;;;;4980794;28;20036;-72
2024/04/22 03:19:44;;;;;;;7.50;2.83;;;;;;;;;;4980086;28;20119;-72
2024/04/22 03:22:14;;;;;;;6.82;2.80;;;;;;;;;;4980050;28;20029;-74
2024/04/22 03:24:46;;;;;;;4.60;2.45;;;;;;;;;;4979047;28;20073;-72
2024/04/22 03:27:16;;;;;;;5.38;2.67;;;;;;;;;;4978938;28;20032;-73
2024/04/22 03:29:47;;;;;;;12.68;2.88;;;;;;;;;;4953313;28;20029;-73
2024/04/22 03:32:17;;;;;;;8.93;2.78;;;;;;;;;;4980348;28;20040;-72
2024/04/22 03:34:47;;;;;;;7.03;2.70;;;;;;;;;;4980269;28;20033;-73
2024/04/22 03:37:19;;;;;;;3.58;2.22;;;;;;;;;;4979672;28;21042;-72
2024/04/22 03:39:50;;;;;;;5.47;3.33;;;;;;;;;;4979026;28;20005;-73
2024/04/22 03:42:21;;;;;;;5.15;2.50;;;;;;;;;;4978954;28;20044;-73
2024/04/22 03:44:51;;;;;;;10.80;3.10;;;;;;;;;;4980379;28;20037;-72
2024/04/22 03:50:11;;;;;;;6.25;2.75;;;;;;;;;;4980760;28;20032;-71
2024/04/22 03:52:41;;;;;;;7.97;3.28;;;;;;;;;;4980694;28;20037;-72
2024/04/22 03:55:12;;;;;;;9.18;3.15;;;;;;;;;;4979629;28;20362;-72
2024/04/22 03:57:43;;;;;;;6.60;2.97;;;;;;;;;;4953879;28;20015;-72
2024/04/22 04:00:17;;;;;;;6.57;3.10;;;;;;;;;;4979757;28;20015;-73
2024/04/22 04:02:47;;;;;;;7.28;3.20;;;;;;;;;;4979523;28;20041;-72
2024/04/22 04:05:17;;;;;;;6.38;3.63;;;;;;;;;;4979630;28;20028;-73
2024/04/22 04:07:51;;;;;;;4.90;2.80;;;;;;;;;;4979600;28;20038;-72
2024/04/22 04:10:25;;;;;;;6.95;3.20;;;;;;;;;;4979279;28;20044;-72
2024/04/22 04:12:55;;;;;;;10.45;2.70;;;;;;;;;;4979551;28;20582;-73
2024/04/22 04:15:26;;;;;;;6.07;2.47;;;;;;;;;;4979607;28;20029;-72
2024/04/22 04:17:57;;;;;;;4.47;2.33;;;;;;;;;;4979665;28;20041;-72
2024/04/22 04:20:28;;;;;;;4.50;2.15;;;;;;;;;;4979849;28;20029;-73
2024/04/22 04:22:58;;;;;;;6.35;2.53;;;;;;;;;;4979826;28;20481;-73
2024/04/22 04:25:34;;;;;;;3.60;2.20;;;;;;;;;;4979481;28;20041;-72
2024/04/22 04:28:04;;;;;;;5.55;2.63;;;;;;;;;;4953196;28;20015;-73
2024/04/22 04:30:35;;;;;;;4.45;2.80;;;;;;;;;;4979374;28;20015;-72
2024/04/22 04:33:06;;;;;;;3.75;2.50;;;;;;;;;;4978964;28;20040;-73
2024/04/22 04:35:37;;;;;;;4.07;2.42;;;;;;;;;;4951957;28;20029;-73
2024/04/22 04:38:07;;;;;;;6.57;2.22;;;;;;;;;;4981270;28;20037;-72
2024/04/22 04:40:37;;;;;;;5.47;2.58;;;;;;;;;;4955575;28;20015;-72
2024/04/22 04:43:09;;;;;;;8.23;2.50;;;;;;;;;;4982031;28;20048;-72
2024/04/22 04:45:39;;;;;;;6.90;2.40;;;;;;;;;;4982250;28;20040;-72
2024/04/22 04:48:09;;;;;;;3.30;2.22;;;;;;;;;;4982524;28;20033;-73
2024/04/22 04:50:40;;;;;;;4.30;2.70;;;;;;;;;;4981897;28;20396;-72
2024/04/22 04:53:15;;;;;;;5.65;2.72;;;;;;;;;;4981852;28;20040;-73
2024/04/22 04:55:47;;;;;;;8.13;3.67;;;;;;;;;;4982156;28;20438;-73
2024/04/22 04:58:18;;;;;;;6.90;3.60;;;;;;;;;;4981982;28;20029;-72
2024/04/22 05:00:53;;;;;;;4.63;2.95;;;;;;;;;;4982140;28;20034;-73
2024/04/22 05:03:24;;;;;;;8.07;2.90;;;;;;;;;;4981847;28;20052;-72
2024/04/22 05:06:01;;;;;;;5.13;3.00;;;;;;;;;;4982009;28;20037;-73
2024/04/22 05:08:32;;;;;;;5.25;2.90;;;;;;;;;;4981624;28;20062;-73
2024/04/22 05:11:03;;;;;;;5.80;2.83;;;;;;;;;;4981873;28;20154;-72
2024/04/22 05:13:35;;;;;;;5.10;2.33;;;;;;;;;;4982006;28;20497;-73
2024/04/22 05:16:06;;;;;;;4.65;2.50;;;;;;;;;;4955828;28;20040;-72
2024/04/22 05:18:37;;;;;;;7.43;3.67;;;;;;;;;;4955367;28;20041;-72
2024/04/22 05:21:11;;;;;;;3.80;2.25;;;;;;;;;;4981392;28;20011;-72
2024/04/22 05:23:50;;;;;;;6.28;2.80;;;;;;;;;;4981346;28;20048;-72
2024/04/22 05:26:20;;;;;;;5.10;2.40;;;;;;;;;;4982131;28;20608;-73
2024/04/22 05:28:50;;;;;;;5.70;3.22;;;;;;;;;;4980885;28;20037;-73
2024/04/22 05:31:23;;;;;;;7.13;3.25;;;;;;;;;;4981313;28;20009;-73
2024/04/22 05:36:43;;;;;;;7.85;3.20;;;;;;;;;;4980777;28;20700;-73
2024/04/22 05:39:13;;;;;;;5.38;3.20;;;;;;;;;;4981954;28;20024;-72
2024/04/22 05:41:43;;;;;;;8.63;3.90;;;;;;;;;;4981395;28;21182;-72
2024/04/22 05:44:15;;;;;;;8.82;3.58;;;;;;;;;;4981654;28;20029;-72
2024/04/22 05:46:47;;;;;;;6.25;3.28;;;;;;;;;;4980705;28;20015;-73
2024/04/22 05:49:17;;;;;;;4.18;3.00;;;;;;;;;;4980126;28;20033;-71
2024/04/22 05:51:49;;;;;;;5.40;3.22;;;;;;;;;;4981303;28;20032;-72
2024/04/22 05:54:21;;;;;;;9.15;2.80;;;;;;;;;;4981776;28;20029;-72
2024/04/22 05:56:52;;;;;;;5.07;2.80;;;;;;;;;;4981432;28;20045;-72
2024/04/22 05:59:23;;;;;;;8.40;3.15;;;;;;;;;;4980969;28;20082;-73
2024/04/22 06:01:53;;;;;;;9.07;3.30;;;;;;;;;;4981440;28;20040;-72
2024/04/22 06:04:24;;;;;;;8.32;2.80;;;;;;;;;;4981626;28;20477;-73
2024/04/22 06:06:54;;;;;;;6.38;2.95;;;;;;;;;;4981579;28;20037;-72
2024/04/22 06:09:26;;;;;;;8.95;3.65;;;;;;;;;;4980970;28;20071;-73
2024/04/22 06:11:56;;;;;;;5.30;3.00;;;;;;;;;;4980692;28;20044;-73
2024/04/22 06:14:45;;;;;;;6.80;3.55;;;;;;;;;;4981206;28;20642;-72
2024/04/22 06:17:15;;;;;;;5.72;3.05;;;;;;;;;;4980413;28;20028;-72
2024/04/22 06:19:46;;;;;;;5.50;3.30;;;;;;;;;;4980924;28;20032;-72
2024/04/22 06:22:18;;;;;;;5.47;2.78;;;;;;;;;;4980789;28;20037;-73
2024/04/22 06:24:49;;;;;;;4.88;3.10;;;;;;;;;;4980647;28;20008;-73
2024/04/22 06:27:19;;;;;;;4.57;2.80;;;;;;;;;;4980475;28;20040;-72
2024/04/22 06:29:50;;;;;;;6.53;3.42;;;;;;;;;;4973462;28;20302;-72
2024/04/22 06:32:21;;;;;;;7.80;3.10;;;;;;;;;;4951303;29;20029;-73
2024/04/22 06:34:52;;;;;;;7.00;3.10;;;;;;;;;;4951076;28;20033;-73
2024/04/22 06:37:23;;;;;;;5.05;2.83;;;;;;;;;;4950860;29;20051;-73
2024/04/22 06:39:53;;;;;;;6.25;3.33;;;;;;;;;;4950449;29;20041;-74
2024/04/22 06:42:28;;;;;;;6.10;3.10;;;;;;;;;;4949623;29;20552;-73
2024/04/22 06:44:59;;;;;;;4.45;2.83;;;;;;;;;;4950739;29;20371;-74
2024/04/22 06:47:30;;;;;;;6.30;2.80;;;;;;;;;;4950274;29;20814;-74
2024/04/22 06:50:00;;;;;;;9.27;3.08;;;;;;;;;;4950366;29;20029;-74
2024/04/22 06:52:31;;;;;;;4.80;3.17;;;;;;;;;;4951052;29;20049;-74
2024/04/22 06:55:02;;;;;;;6.32;2.65;;;;;;;;;;4948844;29;20516;-73
2024/04/22 06:57:32;;;;;;;5.88;2.63;;;;;;;;;;4950097;29;20029;-73
2024/04/22 07:00:03;;;;;;;3.97;2.47;;;;;;;;;;4950148;28;20036;-73
2024/04/22 07:02:33;;;;;;;4.35;2.63;;;;;;;;;;4950195;29;20057;-73
2024/04/22 07:05:05;;;;;;;7.40;2.88;;;;;;;;;;4950366;29;20019;-74
2024/04/22 07:07:36;;;;;;;4.43;2.78;;;;;;;;;;4950991;29;20030;-73
2024/04/22 07:10:07;;;;;;;4.28;2.70;;;;;;;;;;4950419;29;20029;-74
2024/04/22 07:12:38;;;;;;;5.13;2.70;;;;;;;;;;4950290;29;20029;-74
2024/04/22 07:15:08;;;;;;;4.53;2.88;;;;;;;;;;4950085;29;20053;-74
2024/04/22 07:17:40;;;;;;;6.93;3.55;;;;;;;;;;4950044;29;20033;-73
2024/04/22 07:20:10;;;;;;;6.05;3.10;;;;;;;;;;4950227;29;20057;-74
2024/04/22 07:22:42;;;;;;;7.20;3.22;;;;;;;;;;4948766;29;20005;-73
2024/04/22 07:25:17;;;;;;;11.00;3.75;;;;;;;;;;4950108;29;20476;-74
2024/04/22 07:27:50;;;;;;;7.35;2.95;;;;;;;;;;4948868;29;20440;-73
2024/04/22 07:30:22;;;;;;;5.97;2.53;;;;;;;;;;4972005;28;20816;-74
2024/04/22 07:32:52;;;;;;;6.60;2.90;;;;;;;;;;4979695;28;20004;-73
2024/04/22 07:35:23;;;;;;;9.57;3.28;;;;;;;;;;4978709;28;20376;-73
2024/04/22 07:37:58;;;;;;;5.45;2.85;;;;;;;;;;4980032;28;20044;-74
2024/04/22 07:40:31;;;;;;;8.70;3.10;;;;;;;;;;4953419;28;20048;-74
2024/04/22 07:43:01;;;;;;;5.85;3.30;;;;;;;;;;4980106;28;20477;-74
2024/04/22 07:45:31;;;;;;;11.63;3.55;;;;;;;;;;4952278;28;20551;-74
2024/04/22 07:48:03;;;;;;;6.75;3.35;;;;;;;;;;4980419;28;20521;-73
2024/04/22 07:50:34;;;;;;;9.95;3.28;;;;;;;;;;4980579;28;20380;-73
2024/04/22 07:53:06;;;;;;;5.63;3.15;;;;;;;;;;4979836;28;20032;-73
2024/04/22 07:55:37;;;;;;;7.55;2.85;;;;;;;;;;4980653;28;20383;-73
2024/04/22 07:58:08;;;;;;;5.80;3.05;;;;;;;;;;4979522;28;20041;-73
2024/04/22 08:00:39;;;;;;;14.18;3.85;;;;;;;;;;4952063;28;20019;-73
2024/04/22 08:03:11;;;;;;;5.57;3.03;;;;;;;;;;4979268;28;20469;-73
2024/04/22 08:05:41;;;;;;;4.38;2.88;;;;;;;;;;4979459;28;20530;-74
2024/04/22 08:08:18;;;;;;;5.13;3.15;;;;;;;;;;4952682;28;20018;-74
2024/04/22 08:10:49;;;;;;;4.90;3.10;;;;;;;;;;4954315;28;20009;-73
2024/04/22 08:13:19;;;;;;;9.25;3.55;;;;;;;;;;4979639;28;20493;-74
2024/04/22 08:15:50;;;;;;;7.50;2.95;;;;;;;;;;4979178;28;20032;-74
2024/04/22 08:18:23;;;;;;;6.13;3.08;;;;;;;;;;4979398;28;20421;-74
2024/04/22 08:20:53;;;;;;;6.95;3.40;;;;;;;;;;4979367;28;20048;-73
2024/04/22 08:23:24;;;;;;;6.43;3.00;;;;;;;;;;4952649;28;20037;-74
2024/04/22 08:25:55;;;;;;;8.10;3.08;;;;;;;;;;4979186;28;20048;-73
2024/04/22 08:28:27;;;;;;;6.28;3.22;;;;;;;;;;4978563;28;20479;-74
2024/04/22 08:31:01;;;;;;;6.43;2.72;;;;;;;;;;4979088;28;20032;-73
2024/04/22 08:33:32;;;;;;;4.85;3.15;;;;;;;;;;4979629;28;20028;-74
2024/04/22 08:36:03;;;;;;;4.65;3.10;;;;;;;;;;4979204;28;20048;-74
2024/04/22 08:38:35;;;;;;;6.60;3.40;;;;;;;;;;4979373;28;20037;-74
2024/04/22 08:41:05;;;;;;;5.78;3.10;;;;;;;;;;4978713;28;20080;-73
2024/04/22 08:43:35;;;;;;;7.95;3.28;;;;;;;;;;4977823;28;20008;-74
2024/04/22 08:46:05;;;;;;;5.10;2.92;;;;;;;;;;4979297;28;20041;-74
2024/04/22 08:48:40;;;;;;;5.57;3.05;;;;;;;;;;4979744;28;20029;-74
2024/04/22 08:51:11;;;;;;;7.28;3.10;;;;;;;;;;4979520;28;20067;-74
2024/04/22 08:53:41;;;;;;;10.25;3.90;;;;;;;;;;4979035;28;20036;-73
2024/04/22 08:56:12;;;;;;;6.03;3.30;;;;;;;;;;4979862;28;20489;-74
2024/04/22 08:58:43;;;;;;;7.07;2.97;;;;;;;;;;4952346;28;20015;-72
2024/04/22 09:01:15;;;;;;;6.25;4.07;;;;;;;;;;4978766;28;20378;-74
2024/04/22 09:03:45;;;;;;;9.63;3.13;;;;;;;;;;4977732;28;20538;-74
2024/04/22 09:06:15;;;;;;;5.85;3.38;;;;;;;;;;4951619;28;20008;-74
2024/04/22 09:08:47;;;;;;;4.90;3.25;;;;;;;;;;4979039;28;20053;-73
2024/04/22 09:11:22;;;;;;;6.43;2.97;;;;;;;;;;4978086;28;20032;-73
2024/04/22 09:14:15;;;;;;;4.72;2.90;;;;;;;;;;4978353;28;20056;-74
2024/04/22 09:16:46;;;;;;;7.15;3.15;;;;;;;;;;4978761;28;20033;-74
2024/04/22 09:19:25;;;;;;;7.50;3.20;;;;;;;;;;4979012;28;20037;-74
2024/04/22 09:21:57;;;;;;;5.88;2.75;;;;;;;;;;4978545;28;20005;-74
2024/04/22 09:24:29;;;;;;;5.93;3.08;;;;;;;;;;4980767;28;20376;-74
2024/04/22 09:26:59;;;;;;;7.60;3.53;;;;;;;;;;4982042;28;20038;-73
2024/04/22 09:29:39;;;;;;;5.53;3.55;;;;;;;;;;4980736;28;20015;-73
2024/04/22 09:32:15;;;;;;;8.77;3.42;;;;;;;;;;4980769;28;20011;-74
2024/04/22 09:34:49;;;;;;;5.28;3.45;;;;;;;;;;4981137;28;20037;-75
2024/04/22 09:37:23;;;;;;;8.32;3.50;;;;;;;;;;4982166;28;20040;-75
2024/04/22 09:39:57;;;;;;;6.10;3.50;;;;;;;;;;4982174;28;20539;-75
2024/04/22 09:42:29;;;;;;;12.05;3.33;;;;;;;;;;4955349;28;20001;-74
2024/04/22 09:45:01;;;;;;;15.35;3.55;;;;;;;;;;4980167;28;20519;-74
2024/04/22 09:47:34;;;;;;;12.60;3.70;;;;;;;;;;4981731;28;20059;-74
2024/04/22 09:50:06;;;;;;;10.88;4.13;;;;;;;;;;4981143;28;21074;-74
2024/04/22 09:52:40;;;;;;;9.60;3.47;;;;;;;;;;4980835;28;20040;-74
2024/04/22 09:55:11;;;;;;;9.23;3.70;;;;;;;;;;4981145;28;21157;-74
2024/04/22 09:57:43;;;;;;;5.97;3.58;;;;;;;;;;4981434;28;20048;-75
2024/04/22 10:00:15;;;;;;;7.07;3.35;;;;;;;;;;4981364;28;20361;-74
2024/04/22 10:02:47;;;;;;;6.65;3.47;;;;;;;;;;4980981;28;20355;-74
2024/04/22 10:05:21;;;;;;;10.25;4.07;;;;;;;;;;4981109;28;20040;-75
2024/04/22 10:07:52;;;;;;;10.75;3.60;;;;;;;;;;4957212;28;20464;-73
2024/04/22 10:10:22;;;;;;;7.35;3.03;;;;;;;;;;4981671;28;20493;-74
2024/04/22 10:12:53;;;;;;;9.35;3.33;;;;;;;;;;4981137;28;20033;-74
2024/04/22 10:15:25;;;;;;;9.90;3.58;;;;;;;;;;4981521;28;20502;-74
2024/04/22 10:17:56;;;;;;;7.32;3.45;;;;;;;;;;4953907;28;20029;-73
2024/04/22 10:20:33;;;;;;;11.82;3.38;;;;;;;;;;4981401;28;20029;-76
2024/04/22 10:23:06;;;;;;;17.17;3.90;;;;;;;;;;4981069;28;20032;-74
2024/04/22 10:25:37;;;;;;;12.98;3.42;;;;;;;;;;4980291;28;20032;-74
2024/04/22 10:28:07;;;;;;;10.15;3.47;;;;;;;;;;4980433;28;20366;-77
2024/04/22 10:30:42;;;;;;;12.75;3.83;;;;;;;;;;4980378;28;20037;-74
2024/04/22 10:33:13;;;;;;;10.05;3.92;;;;;;;;;;4980308;28;20518;-74
2024/04/22 10:35:45;;;;;;;7.25;3.90;;;;;;;;;;4980136;28;20029;-77
2024/04/22 10:38:15;;;;;;;9.75;3.60;;;;;;;;;;4980729;28;20440;-77
2024/04/22 10:40:45;;;;;;;14.38;4.38;;;;;;;;;;4981036;28;20380;-74
2024/04/22 10:43:17;;;;;;;10.43;4.40;;;;;;;;;;4980320;28;20004;-73
2024/04/22 10:45:49;;;;;;;8.60;3.72;;;;;;;;;;4966606;28;20013;-73
2024/04/22 10:48:19;;;;;;;15.02;4.50;;;;;;;;;;4950458;29;20132;-74
2024/04/22 10:50:54;;;;;;;11.30;4.18;;;;;;;;;;4948816;29;20785;-78
2024/04/22 10:53:27;;;;;;;22.92;4.63;;;;;;;;;;4950462;29;20029;-78
2024/04/22 10:55:57;;;;;;;13.80;4.60;;;;;;;;;;4950052;29;20041;-74
2024/04/22 10:58:29;;;;;;;14.68;4.25;;;;;;;;;;4950525;29;20045;-74
2024/04/22 11:01:00;;;;;;;11.73;4.53;;;;;;;;;;4950407;29;20038;-75
2024/04/22 11:03:31;;;;;;;7.40;3.67;;;;;;;;;;4951176;29;20033;-73
2024/04/22 11:06:03;;;;;;;15.27;4.40;;;;;;;;;;4948765;29;20029;-74
2024/04/22 11:08:34;;;;;;;10.85;4.28;;;;;;;;;;4949776;29;20041;-77
2024/04/22 11:11:04;;;;;;;7.72;4.20;;;;;;;;;;4948005;29;20012;-74
2024/04/22 11:13:38;;;;;;;13.30;4.70;;;;;;;;;;4950743;29;20644;-73
2024/04/22 11:16:10;;;;;;;7.88;3.92;;;;;;;;;;4948191;29;20009;-73
2024/04/22 11:18:41;;;;;;;8.75;3.88;;;;;;;;;;4950011;29;20005;-73
2024/04/22 11:21:11;;;;;;;5.60;3.72;;;;;;;;;;4949999;29;20033;-74
2024/04/22 11:23:41;;;;;;;11.23;4.13;;;;;;;;;;4949527;29;20006;-74
2024/04/22 11:26:12;;;;;;;7.05;3.83;;;;;;;;;;4949629;29;21065;-73
2024/04/22 11:28:45;;;;;;;5.68;3.65;;;;;;;;;;4949674;29;20024;-75
2024/04/22 11:31:16;;;;;;;8.93;3.22;;;;;;;;;;4949979;28;20544;-74
2024/04/22 11:33:47;;;;;;;5.05;3.25;;;;;;;;;;4948051;29;20005;-74
2024/04/22 11:36:18;;;;;;;8.70;3.78;;;;;;;;;;4948432;29;20393;-74
2024/04/22 11:38:51;;;;;;;11.13;3.28;;;;;;;;;;4948413;29;20031;-74
2024/04/22 11:41:24;;;;;;;8.25;3.22;;;;;;;;;;4949512;29;20011;-74
2024/04/22 11:43:54;;;;;;;7.90;3.38;;;;;;;;;;4949586;29;20031;-75
2024/04/22 11:46:28;;;;;;;8.32;3.45;;;;;;;;;;4949220;28;20388;-74
2024/04/22 11:48:59;;;;;;;9.60;3.28;;;;;;;;;;4949964;29;20033;-74
2024/04/22 11:51:29;;;;;;;8.38;3.78;;;;;;;;;;4949736;29;20034;-74
2024/04/22 11:54:00;;;;;;;10.05;3.45;;;;;;;;;;4947804;29;20696;-73
2024/04/22 11:56:35;;;;;;;4.15;2.92;;;;;;;;;;4949081;29;20005;-73
2024/04/22 11:59:06;;;;;;;;;;;;;;;;;;4949717;29;20033;-74
2024/04/22 12:01:37;;;;;;;9.23;6.20;;;;;;;;;;4949361;29;19932;-73
2024/04/22 12:04:08;;;;;;;6.32;4.25;;;;;;;;;;4947650;29;20006;-74
2024/04/22 12:06:38;;;;;;;7.10;4.60;;;;;;;;;;4949579;28;20576;-74
2024/04/22 12:09:09;;;;;;;10.45;4.60;;;;;;;;;;4949904;29;20033;-74
2024/04/22 12:11:40;;;;;;;8.25;4.50;;;;;;;;;;4949169;29;20033;-76
2024/04/22 12:14:11;;;;;;;11.45;4.10;;;;;;;;;;4947892;29;20045;-74
2024/04/22 12:16:42;;;;;;;13.07;4.68;;;;;;;;;;4949203;29;20349;-74
2024/04/22 12:19:13;;;;;;;8.15;3.55;;;;;;;;;;4947978;29;20033;-73
2024/04/22 12:21:44;;;;;;;9.18;3.53;;;;;;;;;;4952477;28;20029;-73
2024/04/22 12:24:14;;;;;;;16.40;4.20;;;;;;;;;;4950824;29;20033;-73
2024/04/22 12:26:45;;;;;;;35.63;4.82;;;;;;;;;;4948023;29;20029;-74
2024/04/22 12:29:15;;;;;;;8.55;4.00;;;;;;;;;;4948799;28;20001;-74
2024/04/22 12:31:45;;;;;;;27.63;4.35;;;;;;;;;;4949400;29;20060;-74
2024/04/22 12:34:16;;;;;;;10.02;3.85;;;;;;;;;;4949263;29;20029;-74
2024/04/22 12:36:48;;;;;;;14.88;3.30;;;;;;;;;;4948843;29;20031;-74
2024/04/22 12:39:20;;;;;;;11.40;3.63;;;;;;;;;;4948796;29;20005;-74
2024/04/22 12:41:50;;;;;;;10.38;3.72;;;;;;;;;;4948717;28;20033;-73
2024/04/22 12:44:20;;;;;;;28.50;5.00;;;;;;;;;;4949150;29;20005;-74
2024/04/22 12:52:30;;;;;;;10.77;4.25;;;;;;;;;;4948986;29;20037;-76
2024/04/22 12:55:00;;;;;;;8.57;3.30;;;;;;;;;;4949286;29;20047;-73
2024/04/22 12:57:33;;;;;;;8.63;3.95;;;;;;;;;;4949393;28;20034;-74
2024/04/22 13:00:08;;;;;;;11.60;3.55;;;;;;;;;;4951685;29;20056;-74
2024/04/22 13:02:39;;;;;;;7.97;3.63;;;;;;;;;;4951722;29;21237;-73
2024/04/22 13:05:10;;;;;;;5.57;3.30;;;;;;;;;;4951321;28;20015;-73
2024/04/22 13:07:46;;;;;;;10.18;3.67;;;;;;;;;;4952408;28;20359;-72
2024/04/22 13:10:17;;;;;;;9.02;4.22;;;;;;;;;;4952219;28;20379;-73
2024/04/22 13:12:48;;;;;;;14.98;6.30;;;;;;;;;;4951536;29;20037;-73
2024/04/22 13:15:18;;;;;;;9.82;4.43;;;;;;;;;;4951570;29;20040;-73
2024/04/22 13:17:48;;;;;;;9.88;5.13;;;;;;;;;;4951494;29;20035;-74
2024/04/22 13:20:19;;;;;;;14.80;7.25;;;;;;;;;;4949526;29;20015;-73
2024/04/22 13:22:50;;;;;;;10.20;4.47;;;;;;;;;;4951080;29;20045;-72
2024/04/22 13:25:21;;;;;;;11.68;5.15;;;;;;;;;;4950808;29;20346;-73
2024/04/22 13:27:54;;;;;;;9.63;5.30;;;;;;;;;;4949732;29;20015;-73
2024/04/22 13:30:26;;;;;;;11.50;5.18;;;;;;;;;;4950935;28;20817;-73
2024/04/22 13:32:57;;;;;;;13.60;6.25;;;;;;;;;;4949417;29;20053;-72
2024/04/22 13:35:28;;;;;;;11.93;5.07;;;;;;;;;;4951036;29;20522;-73
2024/04/22 13:37:58;;;;;;;10.60;4.72;;;;;;;;;;4951234;29;20041;-81
2024/04/22 13:40:28;;;;;;;7.25;5.07;;;;;;;;;;4951038;28;20033;-76
2024/04/22 13:42:59;;;;;;;7.57;4.82;;;;;;;;;;4950631;28;20016;-77
2024/04/22 13:45:31;;;;;;;13.23;5.45;;;;;;;;;;4951352;29;20064;-73
2024/04/22 13:48:02;;;;;;;8.27;4.80;;;;;;;;;;4950925;29;20391;-73
2024/04/22 13:50:33;;;;;;;11.43;5.43;;;;;;;;;;4949133;29;20009;-74
2024/04/22 13:53:03;;;;;;;11.70;5.13;;;;;;;;;;4951315;28;20041;-74
2024/04/22 13:55:53;;;;;;;8.57;4.95;;;;;;;;;;4950807;29;20394;-73
2024/04/22 13:58:25;;;;;;;9.68;4.40;;;;;;;;;;4951044;29;20037;-72
2024/04/22 14:00:55;;;;;;;6.43;4.22;;;;;;;;;;4950905;29;20029;-73
2024/04/22 14:03:26;;;;;;;10.93;6.10;;;;;;;;;;4951618;29;20045;-72
2024/04/22 14:05:56;;;;;;;10.07;4.63;;;;;;;;;;4950397;29;20005;-75
2024/04/22 14:08:27;;;;;;;10.90;4.28;;;;;;;;;;4950509;29;20005;-74
2024/04/22 14:10:59;;;;;;;9.35;4.95;;;;;;;;;;4949466;28;20037;-73
2024/04/22 14:13:30;;;;;;;10.07;4.70;;;;;;;;;;4951243;29;21266;-72
2024/04/22 14:16:00;;;;;;;8.82;4.72;;;;;;;;;;4950968;29;20034;-72
2024/04/22 14:18:31;;;;;;;13.85;5.40;;;;;;;;;;4951319;29;20033;-73
2024/04/22 14:21:03;;;;;;;6.10;4.13;;;;;;;;;;4950771;28;20030;-75
2024/04/22 14:23:33;;;;;;;8.48;4.60;;;;;;;;;;4950713;29;20033;-77
2024/04/22 14:26:03;;;;;;;6.60;3.85;;;;;;;;;;4950151;29;20068;-73
2024/04/22 14:28:35;;;;;;;9.52;4.80;;;;;;;;;;4950619;29;20039;-73
2024/04/22 14:31:10;;;;;;;13.55;4.45;;;;;;;;;;4950542;28;20037;-73
2024/04/22 14:33:40;;;;;;;19.50;4.72;;;;;;;;;;4950845;29;20045;-73
2024/04/22 14:36:11;;;;;;;29.45;5.65;;;;;;;;;;4951078;29;20743;-74
2024/04/22 14:38:41;;;;;;;14.40;5.03;;;;;;;;;;4948781;29;20037;-75
2024/04/22 14:41:13;;;;;;;22.52;5.28;;;;;;;;;;4950514;29;20498;-73
2024/04/22 14:43:44;;;;;;;6.57;4.30;;;;;;;;;;4950740;28;20005;-72
2024/04/22 14:46:17;;;;;;;15.68;4.40;;;;;;;;;;4950213;29;20037;-73
2024/04/22 14:48:48;;;;;;;7.97;3.58;;;;;;;;;;4949606;29;20059;-73
2024/04/22 14:51:19;;;;;;;6.15;3.22;;;;;;;;;;4950513;29;20029;-73
2024/04/22 14:53:59;;;;;;;8.60;4.43;;;;;;;;;;4950361;29;20045;-75
2024/04/22 14:56:30;;;;;;;5.15;2.97;;;;;;;;;;4947686;29;20007;-75
2024/04/22 14:59:04;;;;;;;8.32;2.53;;;;;;;;;;4973009;28;20010;-73
2024/04/22 15:01:35;;;;;;;5.78;3.05;;;;;;;;;;4950735;29;20033;-76
2024/04/22 15:04:06;;;;;;;5.78;2.85;;;;;;;;;;4950207;29;20347;-73
2024/04/22 15:06:37;;;;;;;5.43;2.47;;;;;;;;;;4950153;29;20371;-74
2024/04/22 15:09:09;;;;;;;8.13;2.47;;;;;;;;;;4950907;29;20041;-73
2024/04/22 15:11:41;;;;;;;8.35;2.65;;;;;;;;;;4948887;29;20037;-73
2024/04/22 15:14:13;;;;;;;2.72;2.25;;;;;;;;;;4949824;28;20034;-76
2024/04/22 15:16:44;;;;;;;5.55;2.55;;;;;;;;;;4948325;29;20446;-75